Lincoln, NE (68522)

5:57 AM CDT on August 22, 2014 (GMT -0500)
Capitol Beach | Change Station
CLOSE
Current Station
Personal Weather Station
Location: Lincoln, NE
Elevation: 1134 ft
Nearby Weather Stations

Elev 1134 ft 40.82 °N, 96.73 °W | Updated 9 seconds ago

Scattered Clouds
Scattered Clouds
75.0 °F
Feels Like 74 °F
N
0.0
Wind Variable Wind from West
Gusts 0.0 mph

Today
High -- | Low -- °F
--% Chance of Precip.
Yesterday
High -- | Low -- °F
Precip. -- in
6:44 AM 8:14 PM
Waning Crescent, 9% visible
Pressure 29.86 in
Visibility 10.0 miles
Clouds Few 2000 ft
Scattered Clouds 8500 ft
Heat Index 74 °F
Dew Point 72 °F
Humidity 90%
Rainfall 0.00 in
Snow Depth Not available.
UV 0 out of 12
Pollen 9.20 out of 12
Air Quality Not available.
Flu Activity Not available.
METAR KLNK 220954Z AUTO 00000KT 10SM FEW020 SCT085 25/22 A2990 RMK AO2 SLP111 T02500217

More Conditions Fewer Conditions

Pressure 29.86 in
Visibility 10.0 miles
Clouds Few 2000 ft
Scattered Clouds 8500 ft
Heat Index 74 °F
Dew Point 72 °F
Humidity 90%
Rainfall 0.00 in
Snow Depth Not available.
UV 0 out of 12
Pollen 9.20 out of 12
Air Quality Not available.
Flu Activity Not available.
METAR KLNK 220954Z AUTO 00000KT 10SM FEW020 SCT085 25/22 A2990 RMK AO2 SLP111 T02500217

More Conditions Fewer Conditions

10-Day Weather Forecast

Almanac

Astronomy

Aug. 22, 2014 Rise Set
Actual Time 6:44 AM CDT 8:14 PM CDT
Civil Twilight 6:15 AM CDT 8:43 PM CDT
Nautical Twilight 5:40 AM CDT 9:18 PM CDT
Astronomical Twilight 5:03 AM CDT 9:54 PM CDT
Moon 4:07 AM CDT 6:24 PM CDT
Length of Visible Light 14h 28m
Length of Day
13h 30m
Tomorrow will be 2m 30s shorter.
Waning Crescent, 9% of the Moon is Illuminated
Today
Waning Crescent
Aug 25
New
Sep 2
First Quarter
Sep 8
Full
Sep 15
Last Quarter

Today's Extremes

State Highs State Lows

Community

WunderPhotos

Upload Photos

1,746,151 photos uploaded!

Nearby

Snow Depth

Station Depth Elevation
No new snow has been reported.

Earthquake Activity

City Distance Mag. Time & Date
No recent earthquake activity has been reported nearby.
Minimum magnitude displayed is 2.5.

Coastal Water Temperatures

Place Temperature
No Stations Reporting

Nearby Weather Stations